International Falls, Minnesota
Current Conditions -  °F | °C
As of 5:06 AM on Friday 31 Oct 2014 (Local Time) from KINL Reporting Station
Broken Clouds Broken Clouds  
Wind Chill: 18°   Ceiling: 2700
Heat Index: 27°   Visibility: 10mi
Dew Point: 17°   Wind: 9mph
Humidity: 66%   Direction: 10°N
Pressure: 30.53"   Gusts: NA
Location:  48.6°N, 93.4°W
Report Text: KINL 311006Z AUTO 01008KT 10SM BKN027 M03/M08 A3053 RMK AO2 T10281083
Loading
Personal Weather Stations






























Interactive Weather Map New forecast layout! Learn more

10-Day Weather Forecast

Advertisements
Track Severe Weather on mobile